sensor_id;sensor_type;location;lat;lon;timestamp;temperature;humidity
3356;DHT22;1691;52.486;13.374;2023-02-01T00:00:57;5.00;98.70
3356;DHT22;1691;52.486;13.374;2023-02-01T00:03:24;5.00;98.70
3356;DHT22;1691;52.486;13.374;2023-02-01T00:05:58;5.00;98.70
3356;DHT22;1691;52.486;13.374;2023-02-01T00:08:25;5.10;98.70
3356;DHT22;1691;52.486;13.374;2023-02-01T00:13:29;5.20;98.70
3356;DHT22;1691;52.486;13.374;2023-02-01T00:16:27;5.20;98.70
3356;DHT22;1691;52.486;13.374;2023-02-01T00:19:01;5.30;98.70
3356;DHT22;1691;52.486;13.374;2023-02-01T00:21:29;5.30;98.70
3356;DHT22;1691;52.486;13.374;2023-02-01T00:23:57;5.30;98.70
3356;DHT22;1691;52.486;13.374;2023-02-01T00:26:45;5.30;98.70
3356;DHT22;1691;52.486;13.374;2023-02-01T00:29:15;5.20;98.70
3356;DHT22;1691;52.486;13.374;2023-02-01T00:31:44;5.20;98.70
3356;DHT22;1691;52.486;13.374;2023-02-01T00:34:14;5.20;98.70
3356;DHT22;1691;52.486;13.374;2023-02-01T00:36:43;5.20;98.70
3356;DHT22;1691;52.486;13.374;2023-02-01T00:39:10;5.20;98.70
3356;DHT22;1691;52.486;13.374;2023-02-01T00:41:38;5.20;98.70
3356;DHT22;1691;52.486;13.374;2023-02-01T00:44:05;5.10;98.70
3356;DHT22;1691;52.486;13.374;2023-02-01T00:46:32;5.10;98.70
3356;DHT22;1691;52.486;13.374;2023-02-01T00:48:59;5.00;98.70
3356;DHT22;1691;52.486;13.374;2023-02-01T00:51:28;5.00;98.70
3356;DHT22;1691;52.486;13.374;2023-02-01T00:53:55;4.90;98.70
3356;DHT22;1691;52.486;13.374;2023-02-01T00:56:23;4.90;98.70
3356;DHT22;1691;52.486;13.374;2023-02-01T00:58:50;4.90;98.70
3356;DHT22;1691;52.486;13.374;2023-02-01T01:01:25;4.80;98.70
3356;DHT22;1691;52.486;13.374;2023-02-01T01:03:57;4.80;98.70
3356;DHT22;1691;52.486;13.374;2023-02-01T01:06:28;4.80;98.70
3356;DHT22;1691;52.486;13.374;2023-02-01T01:08:58;4.70;98.70
3356;DHT22;1691;52.486;13.374;2023-02-01T01:11:30;4.70;98.70
3356;DHT22;1691;52.486;13.374;2023-02-01T01:13:59;4.70;98.70
3356;DHT22;1691;52.486;13.374;2023-02-01T01:16:28;4.60;98.70
3356;DHT22;1691;52.486;13.374;2023-02-01T01:18:56;4.60;98.70
3356;DHT22;1691;52.486;13.374;2023-02-01T01:21:24;4.60;98.70
3356;DHT22;1691;52.486;13.374;2023-02-01T01:23:51;4.60;98.70
3356;DHT22;1691;52.486;13.374;2023-02-01T01:26:21;4.60;98.70
3356;DHT22;1691;52.486;13.374;2023-02-01T01:28:49;4.60;98.70
3356;DHT22;1691;52.486;13.374;2023-02-01T01:31:18;4.60;98.70
3356;DHT22;1691;52.486;13.374;2023-02-01T01:33:51;4.60;98.70
3356;DHT22;1691;52.486;13.374;2023-02-01T01:36:20;4.60;98.70
3356;DHT22;1691;52.486;13.374;2023-02-01T01:38:47;4.60;98.70
3356;DHT22;1691;52.486;13.374;2023-02-01T01:41:21;4.60;98.70
3356;DHT22;1691;52.486;13.374;2023-02-01T01:44:05;4.60;98.70
3356;DHT22;1691;52.486;13.374;2023-02-01T01:46:35;4.60;98.70
3356;DHT22;1691;52.486;13.374;2023-02-01T01:49:13;4.60;98.70
3356;DHT22;1691;52.486;13.374;2023-02-01T01:51:55;4.70;98.70
3356;DHT22;1691;52.486;13.374;2023-02-01T01:54:43;4.70;98.70
3356;DHT22;1691;52.486;13.374;2023-02-01T01:57:16;4.70;98.70
3356;DHT22;1691;52.486;13.374;2023-02-01T01:59:52;4.70;98.70
3356;DHT22;1691;52.486;13.374;2023-02-01T02:02:22;4.70;98.70
3356;DHT22;1691;52.486;13.374;2023-02-01T02:04:51;4.70;98.70
3356;DHT22;1691;52.486;13.374;2023-02-01T02:07:24;4.80;98.70
3356;DHT22;1691;52.486;13.374;2023-02-01T02:09:55;4.80;98.70
3356;DHT22;1691;52.486;13.374;2023-02-01T02:12:27;4.80;98.70
3356;DHT22;1691;52.486;13.374;2023-02-01T02:14:54;4.80;98.70
3356;DHT22;1691;52.486;13.374;2023-02-01T02:32:29;4.90;98.70
3356;DHT22;1691;52.486;13.374;2023-02-01T02:38:52;4.90;98.70
3356;DHT22;1691;52.486;13.374;2023-02-01T02:47:57;4.90;98.70
3356;DHT22;1691;52.486;13.374;2023-02-01T02:50:42;4.90;98.70
3356;DHT22;1691;52.486;13.374;2023-02-01T02:54:05;5.00;98.70
3356;DHT22;1691;52.486;13.374;2023-02-01T02:56:53;5.00;98.70
3356;DHT22;1691;52.486;13.374;2023-02-01T02:59:43;5.00;98.70
3356;DHT22;1691;52.486;13.374;2023-02-01T03:02:31;5.00;98.70
3356;DHT22;1691;52.486;13.374;2023-02-01T03:05:18;5.00;98.70
3356;DHT22;1691;52.486;13.374;2023-02-01T03:16:43;5.10;98.70
3356;DHT22;1691;52.486;13.374;2023-02-01T03:21:59;5.20;98.70
3356;DHT22;1691;52.486;13.374;2023-02-01T03:24:41;5.20;98.70
3356;DHT22;1691;52.486;13.374;2023-02-01T03:32:40;5.20;98.70
3356;DHT22;1691;52.486;13.374;2023-02-01T03:35:33;5.20;98.70
3356;DHT22;1691;52.486;13.374;2023-02-01T03:38:18;5.20;98.70
3356;DHT22;1691;52.486;13.374;2023-02-01T03:40:59;5.20;98.70
3356;DHT22;1691;52.486;13.374;2023-02-01T03:43:34;5.20;98.70
3356;DHT22;1691;52.486;13.374;2023-02-01T03:46:14;5.10;98.70
3356;DHT22;1691;52.486;13.374;2023-02-01T03:48:44;5.10;98.70
3356;DHT22;1691;52.486;13.374;2023-02-01T03:51:12;5.10;98.70
3356;DHT22;1691;52.486;13.374;2023-02-01T03:53:40;5.10;98.70
3356;DHT22;1691;52.486;13.374;2023-02-01T03:56:08;5.10;98.70
3356;DHT22;1691;52.486;13.374;2023-02-01T03:58:38;5.10;98.70
3356;DHT22;1691;52.486;13.374;2023-02-01T04:01:05;5.20;98.70
3356;DHT22;1691;52.486;13.374;2023-02-01T04:03:32;5.20;98.70
3356;DHT22;1691;52.486;13.374;2023-02-01T04:05:59;5.30;98.70
3356;DHT22;1691;52.486;13.374;2023-02-01T04:08:26;5.30;98.70
3356;DHT22;1691;52.486;13.374;2023-02-01T04:10:53;5.30;98.70
3356;DHT22;1691;52.486;13.374;2023-02-01T04:13:20;5.40;98.70
3356;DHT22;1691;52.486;13.374;2023-02-01T04:15:47;5.40;98.70
3356;DHT22;1691;52.486;13.374;2023-02-01T04:18:16;5.50;98.70
3356;DHT22;1691;52.486;13.374;2023-02-01T04:20:43;5.60;98.70
3356;DHT22;1691;52.486;13.374;2023-02-01T04:23:11;5.60;98.70
3356;DHT22;1691;52.486;13.374;2023-02-01T04:25:38;5.60;98.70
3356;DHT22;1691;52.486;13.374;2023-02-01T04:28:05;5.70;98.70
3356;DHT22;1691;52.486;13.374;2023-02-01T04:30:33;5.70;98.70
3356;DHT22;1691;52.486;13.374;2023-02-01T04:33:00;5.70;98.70
3356;DHT22;1691;52.486;13.374;2023-02-01T04:35:30;5.70;98.70
3356;DHT22;1691;52.486;13.374;2023-02-01T04:37:57;5.80;98.70
3356;DHT22;1691;52.486;13.374;2023-02-01T04:40:24;5.80;98.70
3356;DHT22;1691;52.486;13.374;2023-02-01T04:42:51;5.80;98.70
3356;DHT22;1691;52.486;13.374;2023-02-01T04:45:18;5.80;98.60
3356;DHT22;1691;52.486;13.374;2023-02-01T04:47:45;5.90;98.40
3356;DHT22;1691;52.486;13.374;2023-02-01T04:50:12;5.90;98.40
3356;DHT22;1691;52.486;13.374;2023-02-01T04:52:39;5.90;98.30
3356;DHT22;1691;52.486;13.374;2023-02-01T04:55:07;5.90;98.30
3356;DHT22;1691;52.486;13.374;2023-02-01T04:57:34;6.00;98.30
3356;DHT22;1691;52.486;13.374;2023-02-01T05:00:01;6.00;98.20
3356;DHT22;1691;52.486;13.374;2023-02-01T05:02:29;6.00;98.10
3356;DHT22;1691;52.486;13.374;2023-02-01T05:04:56;6.00;98.10
3356;DHT22;1691;52.486;13.374;2023-02-01T05:07:23;6.00;98.00
3356;DHT22;1691;52.486;13.374;2023-02-01T05:09:50;6.00;98.00
3356;DHT22;1691;52.486;13.374;2023-02-01T05:12:17;6.00;98.00
3356;DHT22;1691;52.486;13.374;2023-02-01T05:15:03;6.00;97.90
3356;DHT22;1691;52.486;13.374;2023-02-01T05:17:31;6.10;97.90
3356;DHT22;1691;52.486;13.374;2023-02-01T05:19:58;6.10;97.80
3356;DHT22;1691;52.486;13.374;2023-02-01T05:22:25;6.10;97.80
3356;DHT22;1691;52.486;13.374;2023-02-01T05:24:52;6.10;97.80
3356;DHT22;1691;52.486;13.374;2023-02-01T05:27:19;6.10;97.60
3356;DHT22;1691;52.486;13.374;2023-02-01T05:29:46;6.10;97.60
3356;DHT22;1691;52.486;13.374;2023-02-01T05:32:13;6.10;97.50
3356;DHT22;1691;52.486;13.374;2023-02-01T05:34:48;6.10;97.50
3356;DHT22;1691;52.486;13.374;2023-02-01T05:37:15;6.10;97.50
3356;DHT22;1691;52.486;13.374;2023-02-01T05:39:42;6.10;97.50
3356;DHT22;1691;52.486;13.374;2023-02-01T05:42:09;6.10;97.40
3356;DHT22;1691;52.486;13.374;2023-02-01T05:44:36;6.10;97.40
3356;DHT22;1691;52.486;13.374;2023-02-01T05:47:04;6.10;97.30
3356;DHT22;1691;52.486;13.374;2023-02-01T05:49:31;6.20;97.30
3356;DHT22;1691;52.486;13.374;2023-02-01T05:51:58;6.20;97.20
3356;DHT22;1691;52.486;13.374;2023-02-01T05:54:26;6.20;97.20
3356;DHT22;1691;52.486;13.374;2023-02-01T05:56:53;6.20;97.10
3356;DHT22;1691;52.486;13.374;2023-02-01T05:59:20;6.20;97.10
3356;DHT22;1691;52.486;13.374;2023-02-01T06:01:47;6.20;97.00
3356;DHT22;1691;52.486;13.374;2023-02-01T06:04:14;6.20;96.90
3356;DHT22;1691;52.486;13.374;2023-02-01T06:06:41;6.20;96.90
3356;DHT22;1691;52.486;13.374;2023-02-01T06:09:08;6.20;96.90
3356;DHT22;1691;52.486;13.374;2023-02-01T06:11:41;6.20;96.80
3356;DHT22;1691;52.486;13.374;2023-02-01T06:14:08;6.20;96.80
3356;DHT22;1691;52.486;13.374;2023-02-01T06:16:35;6.20;96.80
3356;DHT22;1691;52.486;13.374;2023-02-01T06:19:02;6.20;96.80
3356;DHT22;1691;52.486;13.374;2023-02-01T06:21:29;6.20;96.80
3356;DHT22;1691;52.486;13.374;2023-02-01T06:23:56;6.10;96.90
3356;DHT22;1691;52.486;13.374;2023-02-01T06:26:24;6.10;97.00
3356;DHT22;1691;52.486;13.374;2023-02-01T06:28:51;6.10;97.10
3356;DHT22;1691;52.486;13.374;2023-02-01T06:31:18;6.00;97.30
3356;DHT22;1691;52.486;13.374;2023-02-01T06:33:46;6.00;97.30
3356;DHT22;1691;52.486;13.374;2023-02-01T06:36:13;6.00;97.30
3356;DHT22;1691;52.486;13.374;2023-02-01T06:38:42;6.00;97.30
3356;DHT22;1691;52.486;13.374;2023-02-01T06:41:09;5.90;97.40
3356;DHT22;1691;52.486;13.374;2023-02-01T06:43:37;5.90;97.50
3356;DHT22;1691;52.486;13.374;2023-02-01T06:46:07;5.90;97.60
3356;DHT22;1691;52.486;13.374;2023-02-01T06:48:35;5.90;97.70
3356;DHT22;1691;52.486;13.374;2023-02-01T06:51:02;6.00;97.70
3356;DHT22;1691;52.486;13.374;2023-02-01T06:53:29;6.00;97.80
3356;DHT22;1691;52.486;13.374;2023-02-01T06:56:01;6.00;97.80
3356;DHT22;1691;52.486;13.374;2023-02-01T06:58:33;6.00;97.80
3356;DHT22;1691;52.486;13.374;2023-02-01T07:01:07;6.00;97.90
3356;DHT22;1691;52.486;13.374;2023-02-01T07:03:36;6.00;97.80
3356;DHT22;1691;52.486;13.374;2023-02-01T07:06:04;6.00;97.90
3356;DHT22;1691;52.486;13.374;2023-02-01T07:08:33;6.00;97.90
3356;DHT22;1691;52.486;13.374;2023-02-01T07:11:05;6.00;97.90
3356;DHT22;1691;52.486;13.374;2023-02-01T07:13:35;6.00;97.90
3356;DHT22;1691;52.486;13.374;2023-02-01T07:16:04;6.00;97.90
3356;DHT22;1691;52.486;13.374;2023-02-01T07:18:33;6.10;97.90
3356;DHT22;1691;52.486;13.374;2023-02-01T07:21:00;6.10;97.80
3356;DHT22;1691;52.486;13.374;2023-02-01T07:23:27;6.00;97.70
3356;DHT22;1691;52.486;13.374;2023-02-01T07:26:00;6.00;97.70
3356;DHT22;1691;52.486;13.374;2023-02-01T07:28:29;6.00;97.70
3356;DHT22;1691;52.486;13.374;2023-02-01T07:31:09;6.00;97.80
3356;DHT22;1691;52.486;13.374;2023-02-01T07:33:38;6.00;97.80
3356;DHT22;1691;52.486;13.374;2023-02-01T07:36:07;6.00;97.90
3356;DHT22;1691;52.486;13.374;2023-02-01T07:38:35;6.00;98.00
3356;DHT22;1691;52.486;13.374;2023-02-01T07:41:03;6.10;98.00
3356;DHT22;1691;52.486;13.374;2023-02-01T07:43:32;6.20;98.00
3356;DHT22;1691;52.486;13.374;2023-02-01T07:46:03;6.20;98.00
3356;DHT22;1691;52.486;13.374;2023-02-01T07:48:32;6.20;97.90
3356;DHT22;1691;52.486;13.374;2023-02-01T07:51:12;6.20;97.90
3356;DHT22;1691;52.486;13.374;2023-02-01T07:53:41;6.10;97.90
3356;DHT22;1691;52.486;13.374;2023-02-01T07:56:14;6.00;97.90
3356;DHT22;1691;52.486;13.374;2023-02-01T07:58:46;6.00;98.00
3356;DHT22;1691;52.486;13.374;2023-02-01T08:01:16;5.80;98.20
3356;DHT22;1691;52.486;13.374;2023-02-01T08:03:48;5.80;98.30
3356;DHT22;1691;52.486;13.374;2023-02-01T08:06:20;5.70;98.50
3356;DHT22;1691;52.486;13.374;2023-02-01T08:08:49;5.60;98.70
3356;DHT22;1691;52.486;13.374;2023-02-01T08:11:18;5.50;98.70
3356;DHT22;1691;52.486;13.374;2023-02-01T08:13:45;5.40;98.70
3356;DHT22;1691;52.486;13.374;2023-02-01T08:16:14;5.40;98.70
3356;DHT22;1691;52.486;13.374;2023-02-01T08:18:43;5.30;98.70
3356;DHT22;1691;52.486;13.374;2023-02-01T08:21:13;5.20;98.70
3356;DHT22;1691;52.486;13.374;2023-02-01T08:23:44;5.20;98.70
3356;DHT22;1691;52.486;13.374;2023-02-01T08:26:17;5.10;98.70
3356;DHT22;1691;52.486;13.374;2023-02-01T08:28:54;5.10;98.70
3356;DHT22;1691;52.486;13.374;2023-02-01T08:31:24;5.10;98.70
3356;DHT22;1691;52.486;13.374;2023-02-01T08:33:55;5.00;98.70
3356;DHT22;1691;52.486;13.374;2023-02-01T08:36:27;5.10;98.70
3356;DHT22;1691;52.486;13.374;2023-02-01T08:38:56;5.10;98.70
3356;DHT22;1691;52.486;13.374;2023-02-01T08:41:25;5.10;98.70
3356;DHT22;1691;52.486;13.374;2023-02-01T08:43:54;5.10;98.70
3356;DHT22;1691;52.486;13.374;2023-02-01T08:46:22;5.10;98.70
3356;DHT22;1691;52.486;13.374;2023-02-01T08:48:50;5.10;98.70
3356;DHT22;1691;52.486;13.374;2023-02-01T08:51:20;5.10;98.70
3356;DHT22;1691;52.486;13.374;2023-02-01T08:53:49;5.10;98.70
3356;DHT22;1691;52.486;13.374;2023-02-01T08:56:17;5.10;98.70
3356;DHT22;1691;52.486;13.374;2023-02-01T08:58:45;5.10;98.70
3356;DHT22;1691;52.486;13.374;2023-02-01T09:01:16;5.10;98.70
3356;DHT22;1691;52.486;13.374;2023-02-01T09:03:44;5.10;98.70
3356;DHT22;1691;52.486;13.374;2023-02-01T09:06:13;5.10;98.70
3356;DHT22;1691;52.486;13.374;2023-02-01T09:08:41;5.00;98.70
3356;DHT22;1691;52.486;13.374;2023-02-01T09:11:14;5.00;98.70
3356;DHT22;1691;52.486;13.374;2023-02-01T09:13:43;5.00;98.70
3356;DHT22;1691;52.486;13.374;2023-02-01T09:16:11;5.00;98.70
3356;DHT22;1691;52.486;13.374;2023-02-01T09:18:38;5.00;98.70
3356;DHT22;1691;52.486;13.374;2023-02-01T09:21:25;5.00;98.70
3356;DHT22;1691;52.486;13.374;2023-02-01T09:23:52;5.10;98.70
3356;DHT22;1691;52.486;13.374;2023-02-01T09:26:19;5.20;98.70
3356;DHT22;1691;52.486;13.374;2023-02-01T09:28:56;5.20;98.70
3356;DHT22;1691;52.486;13.374;2023-02-01T09:31:23;5.30;98.70
3356;DHT22;1691;52.486;13.374;2023-02-01T09:33:50;5.30;98.70
3356;DHT22;1691;52.486;13.374;2023-02-01T09:36:17;5.40;98.70
3356;DHT22;1691;52.486;13.374;2023-02-01T09:38:46;5.40;98.70
3356;DHT22;1691;52.486;13.374;2023-02-01T09:47:13;5.50;98.70
3356;DHT22;1691;52.486;13.374;2023-02-01T09:52:49;5.60;98.70
3356;DHT22;1691;52.486;13.374;2023-02-01T09:55:38;5.60;98.70
3356;DHT22;1691;52.486;13.374;2023-02-01T09:58:55;5.60;98.70
3356;DHT22;1691;52.486;13.374;2023-02-01T10:01:04;5.60;98.70
3356;DHT22;1691;52.486;13.374;2023-02-01T10:03:36;5.60;98.70
3356;DHT22;1691;52.486;13.374;2023-02-01T10:06:25;5.60;98.70
3356;DHT22;1691;52.486;13.374;2023-02-01T10:20:57;5.50;98.70
3356;DHT22;1691;52.486;13.374;2023-02-01T10:26:32;5.50;98.70
3356;DHT22;1691;52.486;13.374;2023-02-01T10:29:04;5.50;98.70
3356;DHT22;1691;52.486;13.374;2023-02-01T10:31:39;5.60;98.70
3356;DHT22;1691;52.486;13.374;2023-02-01T10:34:33;5.60;98.70
3356;DHT22;1691;52.486;13.374;2023-02-01T10:37:20;5.70;98.70
3356;DHT22;1691;52.486;13.374;2023-02-01T10:39:55;5.80;98.70
3356;DHT22;1691;52.486;13.374;2023-02-01T10:42:26;5.90;98.70
3356;DHT22;1691;52.486;13.374;2023-02-01T10:44:56;6.00;98.70
3356;DHT22;1691;52.486;13.374;2023-02-01T10:47:25;6.00;98.70
3356;DHT22;1691;52.486;13.374;2023-02-01T10:50:05;6.00;98.70
3356;DHT22;1691;52.486;13.374;2023-02-01T10:52:50;6.00;98.70
3356;DHT22;1691;52.486;13.374;2023-02-01T10:55:33;5.90;98.70
3356;DHT22;1691;52.486;13.374;2023-02-01T10:58:29;5.80;98.70
3356;DHT22;1691;52.486;13.374;2023-02-01T11:01:07;5.70;98.70
3356;DHT22;1691;52.486;13.374;2023-02-01T11:08:58;5.60;98.70
3356;DHT22;1691;52.486;13.374;2023-02-01T11:11:28;5.60;98.70
3356;DHT22;1691;52.486;13.374;2023-02-01T11:14:13;5.70;98.70
3356;DHT22;1691;52.486;13.374;2023-02-01T11:16:48;5.90;98.70
3356;DHT22;1691;52.486;13.374;2023-02-01T11:19:17;6.00;98.70
3356;DHT22;1691;52.486;13.374;2023-02-01T11:21:58;6.00;98.70
3356;DHT22;1691;52.486;13.374;2023-02-01T11:24:29;6.10;98.70
3356;DHT22;1691;52.486;13.374;2023-02-01T11:27:03;6.20;98.70
3356;DHT22;1691;52.486;13.374;2023-02-01T11:29:37;6.40;98.70
3356;DHT22;1691;52.486;13.374;2023-02-01T11:32:08;6.50;98.70
3356;DHT22;1691;52.486;13.374;2023-02-01T11:34:43;6.60;98.70
3356;DHT22;1691;52.486;13.374;2023-02-01T11:37:37;6.80;98.70
3356;DHT22;1691;52.486;13.374;2023-02-01T11:43:00;7.20;98.70
3356;DHT22;1691;52.486;13.374;2023-02-01T11:45:35;7.50;98.70
3356;DHT22;1691;52.486;13.374;2023-02-01T11:48:10;7.70;98.70
3356;DHT22;1691;52.486;13.374;2023-02-01T11:57:07;7.80;98.70
3356;DHT22;1691;52.486;13.374;2023-02-01T12:00:02;7.90;98.70
3356;DHT22;1691;52.486;13.374;2023-02-01T12:03:15;8.00;98.70
3356;DHT22;1691;52.486;13.374;2023-02-01T12:21:34;8.10;98.70
3356;DHT22;1691;52.486;13.374;2023-02-01T12:36:26;7.90;98.70
3356;DHT22;1691;52.486;13.374;2023-02-01T12:39:19;7.80;98.70
3356;DHT22;1691;52.486;13.374;2023-02-01T12:45:26;7.60;98.70
3356;DHT22;1691;52.486;13.374;2023-02-01T12:51:01;7.60;98.70
3356;DHT22;1691;52.486;13.374;2023-02-01T12:53:51;7.60;98.70
3356;DHT22;1691;52.486;13.374;2023-02-01T12:56:46;7.70;98.70
3356;DHT22;1691;52.486;13.374;2023-02-01T12:59:33;7.80;98.70
3356;DHT22;1691;52.486;13.374;2023-02-01T13:02:18;7.80;98.70
3356;DHT22;1691;52.486;13.374;2023-02-01T13:05:04;7.80;98.70
3356;DHT22;1691;52.486;13.374;2023-02-01T13:10:43;7.90;98.40
3356;DHT22;1691;52.486;13.374;2023-02-01T13:13:19;8.00;98.20
3356;DHT22;1691;52.486;13.374;2023-02-01T13:15:57;8.00;98.00
3356;DHT22;1691;52.486;13.374;2023-02-01T13:18:35;8.00;97.90
3356;DHT22;1691;52.486;13.374;2023-02-01T13:21:14;7.90;97.60
3356;DHT22;1691;52.486;13.374;2023-02-01T13:23:46;7.90;97.40
3356;DHT22;1691;52.486;13.374;2023-02-01T13:26:14;7.80;97.30
3356;DHT22;1691;52.486;13.374;2023-02-01T13:28:51;7.80;97.20
3356;DHT22;1691;52.486;13.374;2023-02-01T13:34:47;7.70;96.90
3356;DHT22;1691;52.486;13.374;2023-02-01T13:40:44;7.60;96.50
3356;DHT22;1691;52.486;13.374;2023-02-01T13:43:23;7.60;96.40
3356;DHT22;1691;52.486;13.374;2023-02-01T13:46:02;7.70;96.40
3356;DHT22;1691;52.486;13.374;2023-02-01T13:54:33;7.70;96.10
3356;DHT22;1691;52.486;13.374;2023-02-01T13:57:05;7.80;96.00
3356;DHT22;1691;52.486;13.374;2023-02-01T13:59:53;7.80;96.00
3356;DHT22;1691;52.486;13.374;2023-02-01T14:10:59;7.80;95.80
3356;DHT22;1691;52.486;13.374;2023-02-01T14:13:38;7.70;95.70
3356;DHT22;1691;52.486;13.374;2023-02-01T14:16:13;7.70;95.80
3356;DHT22;1691;52.486;13.374;2023-02-01T14:29:32;7.40;96.60
3356;DHT22;1691;52.486;13.374;2023-02-01T14:32:21;7.30;96.70
3356;DHT22;1691;52.486;13.374;2023-02-01T14:34:55;7.30;97.00
3356;DHT22;1691;52.486;13.374;2023-02-01T14:40:27;7.20;97.20
3356;DHT22;1691;52.486;13.374;2023-02-01T14:42:55;7.30;97.30
3356;DHT22;1691;52.486;13.374;2023-02-01T14:50:48;7.20;97.30
3356;DHT22;1691;52.486;13.374;2023-02-01T14:53:33;7.20;97.30
3356;DHT22;1691;52.486;13.374;2023-02-01T14:56:08;7.30;97.40
3356;DHT22;1691;52.486;13.374;2023-02-01T15:01:38;7.30;97.30
3356;DHT22;1691;52.486;13.374;2023-02-01T15:04:10;7.30;97.20
3356;DHT22;1691;52.486;13.374;2023-02-01T15:06:52;7.30;97.10
3356;DHT22;1691;52.486;13.374;2023-02-01T15:09:38;7.30;97.10
3356;DHT22;1691;52.486;13.374;2023-02-01T15:14:45;7.20;96.80
3356;DHT22;1691;52.486;13.374;2023-02-01T15:17:32;7.00;96.70
3356;DHT22;1691;52.486;13.374;2023-02-01T15:20:26;6.90;96.70
3356;DHT22;1691;52.486;13.374;2023-02-01T15:23:00;6.70;96.80
3356;DHT22;1691;52.486;13.374;2023-02-01T15:25:33;6.50;97.10
3356;DHT22;1691;52.486;13.374;2023-02-01T15:28:08;6.30;97.20
3356;DHT22;1691;52.486;13.374;2023-02-01T15:30:39;6.10;97.40
3356;DHT22;1691;52.486;13.374;2023-02-01T15:33:13;5.90;97.70
3356;DHT22;1691;52.486;13.374;2023-02-01T15:35:45;5.80;97.90
3356;DHT22;1691;52.486;13.374;2023-02-01T15:44:17;5.40;98.70
3356;DHT22;1691;52.486;13.374;2023-02-01T15:46:49;5.30;98.70
3356;DHT22;1691;52.486;13.374;2023-02-01T15:49:27;5.20;98.70
3356;DHT22;1691;52.486;13.374;2023-02-01T15:52:00;5.10;98.70
3356;DHT22;1691;52.486;13.374;2023-02-01T15:54:38;4.90;98.70
3356;DHT22;1691;52.486;13.374;2023-02-01T15:57:10;4.80;98.70
3356;DHT22;1691;52.486;13.374;2023-02-01T15:59:42;4.70;98.70
3356;DHT22;1691;52.486;13.374;2023-02-01T16:05:39;4.60;98.70
3356;DHT22;1691;52.486;13.374;2023-02-01T16:08:24;4.60;98.70
3356;DHT22;1691;52.486;13.374;2023-02-01T16:10:59;4.50;98.70
3356;DHT22;1691;52.486;13.374;2023-02-01T16:13:47;4.40;98.70
3356;DHT22;1691;52.486;13.374;2023-02-01T16:16:14;4.30;98.70
3356;DHT22;1691;52.486;13.374;2023-02-01T16:18:41;4.10;98.70
3356;DHT22;1691;52.486;13.374;2023-02-01T16:21:09;3.90;98.70
3356;DHT22;1691;52.486;13.374;2023-02-01T16:23:36;3.80;98.70
3356;DHT22;1691;52.486;13.374;2023-02-01T16:26:04;3.70;98.70
3356;DHT22;1691;52.486;13.374;2023-02-01T16:28:32;3.60;98.70
3356;DHT22;1691;52.486;13.374;2023-02-01T16:31:00;3.60;98.70
3356;DHT22;1691;52.486;13.374;2023-02-01T16:33:28;3.60;98.70
3356;DHT22;1691;52.486;13.374;2023-02-01T16:35:56;3.60;98.70
3356;DHT22;1691;52.486;13.374;2023-02-01T16:38:27;3.60;98.70
3356;DHT22;1691;52.486;13.374;2023-02-01T16:40:54;3.70;98.70
3356;DHT22;1691;52.486;13.374;2023-02-01T16:43:25;3.70;98.70
3356;DHT22;1691;52.486;13.374;2023-02-01T16:45:54;3.70;98.70
3356;DHT22;1691;52.486;13.374;2023-02-01T16:48:27;3.70;98.70
3356;DHT22;1691;52.486;13.374;2023-02-01T16:51:08;3.70;98.70
3356;DHT22;1691;52.486;13.374;2023-02-01T16:53:37;3.80;98.70
3356;DHT22;1691;52.486;13.374;2023-02-01T16:56:33;3.80;98.70
3356;DHT22;1691;52.486;13.374;2023-02-01T16:59:01;3.80;98.70
3356;DHT22;1691;52.486;13.374;2023-02-01T17:01:28;3.90;98.70
3356;DHT22;1691;52.486;13.374;2023-02-01T17:03:55;3.90;98.70
3356;DHT22;1691;52.486;13.374;2023-02-01T17:06:24;4.00;98.70
3356;DHT22;1691;52.486;13.374;2023-02-01T17:08:54;4.00;98.70
3356;DHT22;1691;52.486;13.374;2023-02-01T17:11:25;4.00;98.70
3356;DHT22;1691;52.486;13.374;2023-02-01T17:13:53;4.00;98.70
3356;DHT22;1691;52.486;13.374;2023-02-01T17:16:27;4.00;98.70
3356;DHT22;1691;52.486;13.374;2023-02-01T17:19:04;4.00;98.70
3356;DHT22;1691;52.486;13.374;2023-02-01T17:21:43;4.10;98.70
3356;DHT22;1691;52.486;13.374;2023-02-01T17:24:13;4.10;98.70
3356;DHT22;1691;52.486;13.374;2023-02-01T17:26:43;4.10;98.70
3356;DHT22;1691;52.486;13.374;2023-02-01T17:29:11;4.20;98.70
3356;DHT22;1691;52.486;13.374;2023-02-01T17:31:41;4.20;98.70
3356;DHT22;1691;52.486;13.374;2023-02-01T17:34:11;4.20;98.70
3356;DHT22;1691;52.486;13.374;2023-02-01T17:36:41;4.30;98.70
3356;DHT22;1691;52.486;13.374;2023-02-01T17:39:10;4.30;98.70
3356;DHT22;1691;52.486;13.374;2023-02-01T17:41:37;4.40;98.70
3356;DHT22;1691;52.486;13.374;2023-02-01T17:44:04;4.40;98.70
3356;DHT22;1691;52.486;13.374;2023-02-01T17:46:31;4.50;98.70
3356;DHT22;1691;52.486;13.374;2023-02-01T17:48:58;4.50;98.70
3356;DHT22;1691;52.486;13.374;2023-02-01T17:51:28;4.50;98.70
3356;DHT22;1691;52.486;13.374;2023-02-01T17:53:56;4.50;98.70
3356;DHT22;1691;52.486;13.374;2023-02-01T17:56:24;4.60;98.70
3356;DHT22;1691;52.486;13.374;2023-02-01T17:58:51;4.60;98.70
3356;DHT22;1691;52.486;13.374;2023-02-01T18:01:20;4.60;98.70
3356;DHT22;1691;52.486;13.374;2023-02-01T18:03:49;4.60;98.70
3356;DHT22;1691;52.486;13.374;2023-02-01T18:06:22;4.70;98.70
3356;DHT22;1691;52.486;13.374;2023-02-01T18:08:52;4.70;98.70
3356;DHT22;1691;52.486;13.374;2023-02-01T18:11:21;4.70;98.70
3356;DHT22;1691;52.486;13.374;2023-02-01T18:13:50;4.70;98.70
3356;DHT22;1691;52.486;13.374;2023-02-01T18:16:29;4.70;98.70
3356;DHT22;1691;52.486;13.374;2023-02-01T18:18:58;4.80;98.70
3356;DHT22;1691;52.486;13.374;2023-02-01T18:21:40;4.80;98.70
3356;DHT22;1691;52.486;13.374;2023-02-01T18:24:11;4.90;98.70
3356;DHT22;1691;52.486;13.374;2023-02-01T18:26:40;4.90;98.70
3356;DHT22;1691;52.486;13.374;2023-02-01T18:29:08;4.90;98.70
3356;DHT22;1691;52.486;13.374;2023-02-01T18:31:39;4.90;98.70
3356;DHT22;1691;52.486;13.374;2023-02-01T18:34:10;5.00;98.70
3356;DHT22;1691;52.486;13.374;2023-02-01T18:36:42;5.00;98.70
3356;DHT22;1691;52.486;13.374;2023-02-01T18:39:09;5.00;98.70
3356;DHT22;1691;52.486;13.374;2023-02-01T18:41:37;5.00;98.70
3356;DHT22;1691;52.486;13.374;2023-02-01T18:44:04;5.00;98.70
3356;DHT22;1691;52.486;13.374;2023-02-01T18:46:31;5.00;98.70
3356;DHT22;1691;52.486;13.374;2023-02-01T18:48:58;5.00;98.70
3356;DHT22;1691;52.486;13.374;2023-02-01T18:51:25;5.00;98.70
3356;DHT22;1691;52.486;13.374;2023-02-01T18:53:52;5.10;98.70
3356;DHT22;1691;52.486;13.374;2023-02-01T18:56:19;5.10;98.70
3356;DHT22;1691;52.486;13.374;2023-02-01T18:58:46;5.10;98.70
3356;DHT22;1691;52.486;13.374;2023-02-01T19:01:16;5.10;98.70
3356;DHT22;1691;52.486;13.374;2023-02-01T19:03:49;5.10;98.70
3356;DHT22;1691;52.486;13.374;2023-02-01T19:06:36;5.10;98.70
3356;DHT22;1691;52.486;13.374;2023-02-01T19:09:03;5.10;98.70
3356;DHT22;1691;52.486;13.374;2023-02-01T19:11:30;5.10;98.70
3356;DHT22;1691;52.486;13.374;2023-02-01T19:13:57;5.10;98.70
3356;DHT22;1691;52.486;13.374;2023-02-01T19:16:24;5.20;98.70
3356;DHT22;1691;52.486;13.374;2023-02-01T19:18:52;5.20;98.70
3356;DHT22;1691;52.486;13.374;2023-02-01T19:21:19;5.20;98.70
3356;DHT22;1691;52.486;13.374;2023-02-01T19:23:46;5.20;98.70
3356;DHT22;1691;52.486;13.374;2023-02-01T19:26:15;5.20;98.70
3356;DHT22;1691;52.486;13.374;2023-02-01T19:28:43;5.20;98.70
3356;DHT22;1691;52.486;13.374;2023-02-01T19:31:16;5.20;98.70